Terminal Aerodrome Forecast
Issued by NWS Tuscon, AZ

Home | Current Version | Previous Version | Text Only | Print | Product List | Glossary On
Versions: 1 2 3 4 5 6 7 8 9 10 11 12 13 14 15
000
FTUS45 KTWC 282333
TAFDUG
TAF
KDUG 282333Z 2900/2924 09010KT P6SM SCT090
     FM290400 13009KT P6SM FEW070 BKN150
     FM291000 VRB04KT P6SM SCT150
     FM291800 09011G18KT P6SM VCSH FEW070 SCT150=

USA.gov is the U.S. government's official web portal to all federal, state and local government web resources and services.